Time;durP1;ratioP1;P1;durP2;ratioP2;P2;SDS_P1;SDS_P2;PMS_P1;PMS_P2;Temp;Humidity;BMP_temperature;BMP_pressure;BME280_temperature;BME280_humidity;BME280_pressure;Samples;Min_cycle;Max_cycle;Signal;HPM_P1;HPM_P2
2022/03/02 00:00:09;;;;;;;35.33;25.83;;;;;;;;;;4949916;29;20054;-85
2022/03/02 00:02:36;;;;;;;36.67;26.80;;;;;;;;;;4949998;29;20051;-85
2022/03/02 00:05:02;;;;;;;36.92;27.10;;;;;;;;;;4943509;29;20395;-85
2022/03/02 00:07:28;;;;;;;31.77;25.30;;;;;;;;;;4947449;29;20080;-85
2022/03/02 00:09:54;;;;;;;38.38;26.00;;;;;;;;;;4940374;29;20039;-86
2022/03/02 00:12:20;;;;;;;35.90;26.83;;;;;;;;;;4953105;29;20057;-85
2022/03/02 00:14:46;;;;;;;33.40;25.40;;;;;;;;;;4946514;29;20095;-85
2022/03/02 00:17:12;;;;;;;35.35;24.40;;;;;;;;;;4937766;29;20054;-85
2022/03/02 00:19:38;;;;;;;36.38;25.77;;;;;;;;;;4948865;29;20780;-85
2022/03/02 00:22:04;;;;;;;32.55;24.20;;;;;;;;;;4951427;29;20047;-85
2022/03/02 00:24:30;;;;;;;31.90;25.00;;;;;;;;;;4934285;29;20486;-85
2022/03/02 00:26:57;;;;;;;34.08;25.40;;;;;;;;;;4947224;29;20046;-85
2022/03/02 00:29:23;;;;;;;32.85;24.98;;;;;;;;;;4940847;29;20039;-85
2022/03/02 00:31:49;;;;;;;35.50;25.27;;;;;;;;;;4936421;29;20130;-85
2022/03/02 00:34:15;;;;;;;33.92;25.25;;;;;;;;;;4945027;29;20174;-85
2022/03/02 00:36:42;;;;;;;34.50;26.00;;;;;;;;;;4941668;29;20058;-85
2022/03/02 00:39:08;;;;;;;35.97;25.45;;;;;;;;;;4932982;29;20054;-85
2022/03/02 00:41:34;;;;;;;36.30;25.77;;;;;;;;;;4947263;29;20043;-85
2022/03/02 00:44:00;;;;;;;34.80;24.33;;;;;;;;;;4946118;29;20046;-85
2022/03/02 00:46:29;;;;;;;35.28;26.30;;;;;;;;;;4946947;28;20118;-85
2022/03/02 00:48:56;;;;;;;35.55;26.27;;;;;;;;;;4936612;29;20048;-85
2022/03/02 00:51:22;;;;;;;34.83;25.35;;;;;;;;;;4940084;29;20071;-85
2022/03/02 00:53:49;;;;;;;36.05;26.95;;;;;;;;;;4941533;28;20493;-85
2022/03/02 00:56:15;;;;;;;38.33;27.30;;;;;;;;;;4942885;29;20430;-85
2022/03/02 00:58:41;;;;;;;36.33;25.95;;;;;;;;;;4942219;29;20043;-85
2022/03/02 01:01:07;;;;;;;38.00;27.90;;;;;;;;;;4918119;29;20091;-85
2022/03/02 01:03:32;;;;;;;36.33;26.70;;;;;;;;;;4945904;29;20046;-85
2022/03/02 01:06:00;;;;;;;35.22;26.35;;;;;;;;;;4939610;29;20457;-85
2022/03/02 01:08:26;;;;;;;39.05;27.48;;;;;;;;;;4952535;29;20653;-85
2022/03/02 01:10:53;;;;;;;39.63;27.52;;;;;;;;;;4953986;29;20482;-85
2022/03/02 01:13:18;;;;;;;37.60;26.27;;;;;;;;;;4943299;29;20595;-84
2022/03/02 01:15:44;;;;;;;37.10;26.75;;;;;;;;;;4952906;28;20043;-85
2022/03/02 01:18:10;;;;;;;36.72;26.58;;;;;;;;;;4945112;29;20698;-85
2022/03/02 01:20:36;;;;;;;37.05;26.05;;;;;;;;;;4943983;29;20039;-85
2022/03/02 01:23:02;;;;;;;35.05;26.30;;;;;;;;;;4945399;29;20054;-85
2022/03/02 01:25:28;;;;;;;36.42;26.02;;;;;;;;;;4951532;29;20174;-85
2022/03/02 01:27:54;;;;;;;37.28;25.80;;;;;;;;;;4950871;29;20497;-85
2022/03/02 01:30:21;;;;;;;37.03;26.70;;;;;;;;;;4950847;29;20061;-85
2022/03/02 01:32:47;;;;;;;41.70;28.27;;;;;;;;;;4952405;29;20118;-85
2022/03/02 01:35:13;;;;;;;38.17;27.02;;;;;;;;;;4944190;28;20126;-85
2022/03/02 01:37:39;;;;;;;38.22;27.75;;;;;;;;;;4953879;29;20050;-85
2022/03/02 01:40:09;;;;;;;39.58;28.40;;;;;;;;;;4949916;29;20062;-85
2022/03/02 01:42:35;;;;;;;38.83;27.60;;;;;;;;;;4948367;29;20039;-85
2022/03/02 01:45:02;;;;;;;35.25;25.67;;;;;;;;;;4937271;29;20051;-85
2022/03/02 01:47:28;;;;;;;40.38;29.10;;;;;;;;;;4947304;29;20051;-85
2022/03/02 01:49:54;;;;;;;38.08;27.48;;;;;;;;;;4940490;29;20386;-85
2022/03/02 01:52:20;;;;;;;41.13;29.05;;;;;;;;;;4949314;29;20039;-85
2022/03/02 01:54:46;;;;;;;38.90;29.00;;;;;;;;;;4939605;29;20051;-85
2022/03/02 01:57:12;;;;;;;40.90;28.83;;;;;;;;;;4932273;29;20058;-85
2022/03/02 01:59:38;;;;;;;39.88;28.58;;;;;;;;;;4952251;29;20552;-85
2022/03/02 02:02:04;;;;;;;40.13;29.50;;;;;;;;;;4937565;29;20048;-85
2022/03/02 02:04:30;;;;;;;43.35;30.20;;;;;;;;;;4956633;29;20039;-85
2022/03/02 02:06:56;;;;;;;42.30;29.88;;;;;;;;;;4943558;29;20094;-85
2022/03/02 02:09:22;;;;;;;41.25;28.88;;;;;;;;;;4937587;29;20036;-85
2022/03/02 02:11:48;;;;;;;44.25;31.00;;;;;;;;;;4940805;29;20482;-84
2022/03/02 02:14:14;;;;;;;43.45;29.60;;;;;;;;;;4951202;28;20123;-85
2022/03/02 02:16:40;;;;;;;42.08;30.73;;;;;;;;;;4944079;29;20090;-85
2022/03/02 02:19:06;;;;;;;46.53;32.35;;;;;;;;;;4944355;29;20486;-85
2022/03/02 02:21:32;;;;;;;41.45;31.02;;;;;;;;;;4947687;28;20135;-85
2022/03/02 02:23:58;;;;;;;43.30;29.88;;;;;;;;;;4945415;29;20134;-85
2022/03/02 02:26:25;;;;;;;40.60;30.40;;;;;;;;;;4945104;29;20044;-85
2022/03/02 02:28:51;;;;;;;40.05;31.73;;;;;;;;;;4943253;29;20202;-85
2022/03/02 02:31:18;;;;;;;43.25;31.48;;;;;;;;;;4930816;29;20137;-85
2022/03/02 02:33:44;;;;;;;46.50;33.10;;;;;;;;;;4943958;29;20065;-85
2022/03/02 02:36:12;;;;;;;48.08;31.20;;;;;;;;;;4954872;29;20098;-85
2022/03/02 02:38:38;;;;;;;44.90;32.20;;;;;;;;;;4931963;29;20070;-85
2022/03/02 02:41:04;;;;;;;43.17;31.05;;;;;;;;;;4943441;29;20083;-85
2022/03/02 02:43:30;;;;;;;43.60;32.55;;;;;;;;;;4933277;29;20393;-85
2022/03/02 02:45:56;;;;;;;43.55;31.65;;;;;;;;;;4937045;29;20103;-85
2022/03/02 02:48:22;;;;;;;45.28;32.45;;;;;;;;;;4947936;29;20122;-85
2022/03/02 02:50:49;;;;;;;43.92;31.08;;;;;;;;;;4948926;29;20070;-85
2022/03/02 02:53:16;;;;;;;43.40;31.77;;;;;;;;;;4950460;28;20043;-85
2022/03/02 02:55:43;;;;;;;44.65;31.58;;;;;;;;;;4939646;29;20489;-85
2022/03/02 02:58:09;;;;;;;43.85;32.10;;;;;;;;;;4949751;29;20046;-85
2022/03/02 03:00:37;;;;;;;42.78;31.70;;;;;;;;;;4952041;29;20077;-85
2022/03/02 03:03:03;;;;;;;43.33;32.15;;;;;;;;;;4940630;29;20047;-85
2022/03/02 03:05:31;;;;;;;41.00;31.27;;;;;;;;;;4953566;29;20079;-84
2022/03/02 03:07:58;;;;;;;42.75;31.08;;;;;;;;;;4950705;28;20047;-85
2022/03/02 03:10:25;;;;;;;42.50;30.95;;;;;;;;;;4950952;29;20118;-85
2022/03/02 03:12:51;;;;;;;48.47;34.28;;;;;;;;;;4948165;29;20058;-85
2022/03/02 03:15:18;;;;;;;47.42;33.22;;;;;;;;;;4940920;29;20039;-85
2022/03/02 03:17:45;;;;;;;44.55;32.65;;;;;;;;;;4947864;29;20036;-85
2022/03/02 03:20:12;;;;;;;46.78;33.70;;;;;;;;;;4940583;29;20494;-85
2022/03/02 03:22:38;;;;;;;48.05;34.33;;;;;;;;;;4941983;29;20043;-85
2022/03/02 03:25:07;;;;;;;45.40;32.65;;;;;;;;;;4945915;28;20043;-85
2022/03/02 03:27:33;;;;;;;46.78;32.78;;;;;;;;;;4946539;29;20497;-85
2022/03/02 03:29:59;;;;;;;46.70;34.28;;;;;;;;;;4948456;29;20126;-85
2022/03/02 03:32:26;;;;;;;48.22;34.67;;;;;;;;;;4943694;29;20131;-85
2022/03/02 03:34:52;;;;;;;47.97;34.08;;;;;;;;;;4946670;29;20047;-85
2022/03/02 03:37:18;;;;;;;48.92;34.55;;;;;;;;;;4946228;29;20083;-85
2022/03/02 03:39:44;;;;;;;48.15;34.70;;;;;;;;;;4950069;28;20039;-86
2022/03/02 03:42:10;;;;;;;47.50;34.38;;;;;;;;;;4927078;29;20058;-85
2022/03/02 03:44:36;;;;;;;49.00;35.15;;;;;;;;;;4942774;29;20546;-85
2022/03/02 03:47:02;;;;;;;47.95;35.70;;;;;;;;;;4933647;29;20141;-85
2022/03/02 03:49:28;;;;;;;47.42;34.10;;;;;;;;;;4945046;29;20122;-85
2022/03/02 03:51:54;;;;;;;48.22;34.55;;;;;;;;;;4940839;29;20122;-85
2022/03/02 03:54:20;;;;;;;47.05;33.85;;;;;;;;;;4936491;29;20043;-85
2022/03/02 03:56:46;;;;;;;49.33;34.88;;;;;;;;;;4942547;29;20039;-85
2022/03/02 03:59:12;;;;;;;52.25;34.08;;;;;;;;;;4948281;29;20099;-85
2022/03/02 04:01:38;;;;;;;48.78;34.90;;;;;;;;;;4942528;29;20047;-85
2022/03/02 04:04:04;;;;;;;51.53;36.33;;;;;;;;;;4940599;29;20043;-85
2022/03/02 04:06:30;;;;;;;51.08;36.42;;;;;;;;;;4945404;29;20047;-85
2022/03/02 04:08:56;;;;;;;50.58;33.88;;;;;;;;;;4946826;29;20071;-85
2022/03/02 04:11:22;;;;;;;52.45;35.88;;;;;;;;;;4954032;29;20073;-84
2022/03/02 04:13:49;;;;;;;52.00;34.92;;;;;;;;;;4947058;29;20079;-85
2022/03/02 04:16:15;;;;;;;51.08;34.17;;;;;;;;;;4946757;28;20164;-85
2022/03/02 04:18:41;;;;;;;53.42;36.00;;;;;;;;;;4940185;29;20044;-85
2022/03/02 04:21:08;;;;;;;54.35;36.88;;;;;;;;;;4940554;29;20043;-85
2022/03/02 04:23:34;;;;;;;51.88;34.88;;;;;;;;;;4940368;28;20054;-85
2022/03/02 04:26:00;;;;;;;49.65;35.05;;;;;;;;;;4946081;29;20398;-85
2022/03/02 04:28:26;;;;;;;51.10;34.92;;;;;;;;;;4946856;29;20196;-85
2022/03/02 04:30:52;;;;;;;53.47;36.28;;;;;;;;;;4947781;28;20418;-85
2022/03/02 04:33:18;;;;;;;51.47;36.33;;;;;;;;;;4943210;29;20043;-85
2022/03/02 04:35:44;;;;;;;54.13;37.10;;;;;;;;;;4939451;29;20040;-86
2022/03/02 04:38:10;;;;;;;54.83;36.55;;;;;;;;;;4947763;29;20118;-85
2022/03/02 04:40:36;;;;;;;54.17;36.25;;;;;;;;;;4930120;29;20071;-85
2022/03/02 04:43:03;;;;;;;53.20;35.70;;;;;;;;;;4943664;29;20051;-85
2022/03/02 04:45:29;;;;;;;54.97;37.70;;;;;;;;;;4946612;29;20123;-84
2022/03/02 04:47:56;;;;;;;57.72;36.40;;;;;;;;;;4953295;29;20122;-85
2022/03/02 04:50:22;;;;;;;55.75;37.50;;;;;;;;;;4948122;29;20114;-85
2022/03/02 04:52:49;;;;;;;54.47;37.85;;;;;;;;;;4947620;29;20047;-86
2022/03/02 04:55:16;;;;;;;60.75;36.85;;;;;;;;;;4948454;29;20039;-85
2022/03/02 04:57:44;;;;;;;57.58;36.85;;;;;;;;;;4945322;28;20043;-85
2022/03/02 05:00:11;;;;;;;60.97;38.33;;;;;;;;;;4951908;29;20047;-85
2022/03/02 05:02:38;;;;;;;58.63;36.38;;;;;;;;;;4950271;29;20047;-86
2022/03/02 05:05:06;;;;;;;53.67;36.15;;;;;;;;;;4942526;29;20052;-85
2022/03/02 05:07:32;;;;;;;55.00;37.13;;;;;;;;;;4936427;29;20044;-85
2022/03/02 05:09:58;;;;;;;54.47;35.25;;;;;;;;;;4950844;29;20043;-86
2022/03/02 05:12:24;;;;;;;55.33;36.50;;;;;;;;;;4952389;29;20044;-85
2022/03/02 05:14:50;;;;;;;55.97;36.90;;;;;;;;;;4942362;29;20052;-86
2022/03/02 05:17:17;;;;;;;55.83;36.92;;;;;;;;;;4937108;29;20054;-85
2022/03/02 05:19:43;;;;;;;56.90;37.80;;;;;;;;;;4953708;29;20055;-86
2022/03/02 05:22:09;;;;;;;59.80;38.53;;;;;;;;;;4947874;28;20055;-85
2022/03/02 05:24:36;;;;;;;58.47;37.33;;;;;;;;;;4950796;29;20659;-85
2022/03/02 05:27:02;;;;;;;62.95;39.90;;;;;;;;;;4952620;29;20144;-85
2022/03/02 05:29:28;;;;;;;60.00;38.50;;;;;;;;;;4948396;29;20043;-85
2022/03/02 05:31:54;;;;;;;66.88;38.97;;;;;;;;;;4944081;29;20047;-86
2022/03/02 05:34:20;;;;;;;64.95;39.83;;;;;;;;;;4945260;29;20047;-85
2022/03/02 05:36:46;;;;;;;59.03;36.42;;;;;;;;;;4940550;29;20050;-85
2022/03/02 05:39:12;;;;;;;59.35;37.90;;;;;;;;;;4955389;29;20378;-86
2022/03/02 05:41:39;;;;;;;54.65;36.20;;;;;;;;;;4947712;29;20050;-86
2022/03/02 05:44:07;;;;;;;58.17;36.47;;;;;;;;;;4946314;28;20122;-85
2022/03/02 05:46:33;;;;;;;56.88;36.35;;;;;;;;;;4935938;29;20090;-86
2022/03/02 05:48:59;;;;;;;53.50;36.08;;;;;;;;;;4952857;28;20094;-86
2022/03/02 05:51:25;;;;;;;50.72;34.55;;;;;;;;;;4953471;29;20048;-85
2022/03/02 05:53:51;;;;;;;56.30;36.30;;;;;;;;;;4939990;29;20481;-85
2022/03/02 05:56:18;;;;;;;57.88;36.70;;;;;;;;;;4950645;29;20039;-86
2022/03/02 05:58:43;;;;;;;56.45;36.30;;;;;;;;;;4945752;29;20098;-85
2022/03/02 06:01:09;;;;;;;57.65;36.38;;;;;;;;;;4952779;29;20130;-85
2022/03/02 06:03:35;;;;;;;61.33;39.67;;;;;;;;;;4943101;29;20043;-85
2022/03/02 06:06:02;;;;;;;63.50;38.85;;;;;;;;;;4949211;29;20056;-86
2022/03/02 06:08:28;;;;;;;62.60;38.28;;;;;;;;;;4950143;29;20047;-85
2022/03/02 06:10:54;;;;;;;60.15;39.63;;;;;;;;;;4942460;29;20050;-85
2022/03/02 06:13:20;;;;;;;65.32;40.17;;;;;;;;;;4930647;29;20044;-85
2022/03/02 06:15:46;;;;;;;65.05;39.95;;;;;;;;;;4950327;29;20142;-85
2022/03/02 06:18:12;;;;;;;61.53;39.30;;;;;;;;;;4950349;29;20051;-85
2022/03/02 06:20:38;;;;;;;65.25;40.30;;;;;;;;;;4946391;29;20114;-85
2022/03/02 06:23:04;;;;;;;62.25;38.35;;;;;;;;;;4931249;29;20043;-85
2022/03/02 06:25:31;;;;;;;54.08;36.35;;;;;;;;;;4955347;29;20485;-85
2022/03/02 06:27:57;;;;;;;62.28;38.22;;;;;;;;;;4947325;29;20640;-86
2022/03/02 06:30:23;;;;;;;58.15;36.28;;;;;;;;;;4950429;29;20035;-85
2022/03/02 06:32:49;;;;;;;60.22;38.15;;;;;;;;;;4942607;29;20043;-85
2022/03/02 06:35:15;;;;;;;62.38;39.47;;;;;;;;;;4951065;29;20043;-85
2022/03/02 06:37:41;;;;;;;65.72;39.15;;;;;;;;;;4945648;29;20570;-85
2022/03/02 06:40:08;;;;;;;63.60;40.13;;;;;;;;;;4950648;28;20051;-86
2022/03/02 06:42:57;;;;;;;60.72;37.35;;;;;;;;;;4952652;28;20043;-83
2022/03/02 06:45:26;;;;;;;60.80;37.53;;;;;;;;;;4948117;28;20036;-86
2022/03/02 06:47:53;;;;;;;55.97;35.08;;;;;;;;;;4939881;29;20110;-85
2022/03/02 06:50:22;;;;;;;62.10;37.08;;;;;;;;;;4950897;29;20425;-85
2022/03/02 06:52:48;;;;;;;64.57;38.55;;;;;;;;;;4969979;28;20082;-85
2022/03/02 06:55:18;;;;;;;57.42;37.30;;;;;;;;;;4942637;29;20390;-85
2022/03/02 06:57:51;;;;;;;58.67;37.53;;;;;;;;;;4948813;28;20528;-86
2022/03/02 07:00:18;;;;;;;61.65;38.03;;;;;;;;;;4922597;29;20505;-85
2022/03/02 07:02:48;;;;;;;57.63;37.90;;;;;;;;;;4937994;29;20043;-84
2022/03/02 07:05:15;;;;;;;59.95;36.65;;;;;;;;;;4950397;29;20051;-85
2022/03/02 07:07:41;;;;;;;51.53;35.13;;;;;;;;;;4942226;29;20043;-85
2022/03/02 07:10:08;;;;;;;58.13;35.45;;;;;;;;;;4929809;29;20046;-85
2022/03/02 07:12:34;;;;;;;50.63;34.22;;;;;;;;;;4948011;29;20051;-85
2022/03/02 07:15:00;;;;;;;54.58;35.53;;;;;;;;;;4946098;29;20050;-85
2022/03/02 07:17:27;;;;;;;49.70;34.30;;;;;;;;;;4952777;28;20042;-85
2022/03/02 07:19:53;;;;;;;45.95;32.22;;;;;;;;;;4945035;29;20381;-86
2022/03/02 07:22:21;;;;;;;45.97;32.70;;;;;;;;;;4961599;28;20055;-85
2022/03/02 07:25:03;;;;;;;47.38;32.53;;;;;;;;;;4933971;29;20050;-85
2022/03/02 07:27:29;;;;;;;45.25;29.92;;;;;;;;;;4935120;29;20035;-85
2022/03/02 07:29:56;;;;;;;41.35;29.90;;;;;;;;;;4948362;29;20042;-86
2022/03/02 07:32:23;;;;;;;41.65;29.98;;;;;;;;;;4946022;28;20051;-85
2022/03/02 07:34:55;;;;;;;43.13;30.48;;;;;;;;;;4944686;29;20058;-85
2022/03/02 07:37:21;;;;;;;40.63;29.67;;;;;;;;;;4943086;29;20076;-85
2022/03/02 07:39:48;;;;;;;43.78;30.35;;;;;;;;;;4934454;29;20053;-86
2022/03/02 07:42:14;;;;;;;41.67;30.42;;;;;;;;;;4933053;29;20054;-86
2022/03/02 07:44:41;;;;;;;46.08;30.98;;;;;;;;;;4948284;29;20493;-86
2022/03/02 07:47:07;;;;;;;42.22;29.58;;;;;;;;;;4942679;29;20047;-86
2022/03/02 07:49:33;;;;;;;40.38;29.23;;;;;;;;;;4939182;29;20035;-86
2022/03/02 07:52:02;;;;;;;41.28;30.48;;;;;;;;;;4941005;29;20054;-86
2022/03/02 07:54:29;;;;;;;44.08;30.23;;;;;;;;;;4946852;29;20122;-86
2022/03/02 07:56:56;;;;;;;42.20;30.02;;;;;;;;;;4951696;28;20031;-86
2022/03/02 07:59:22;;;;;;;39.88;29.85;;;;;;;;;;4941581;29;20463;-88
2022/03/02 08:01:48;;;;;;;40.65;29.00;;;;;;;;;;4945434;29;20067;-85
2022/03/02 08:04:14;;;;;;;43.65;31.23;;;;;;;;;;4947025;29;20097;-85
2022/03/02 08:06:41;;;;;;;42.90;30.23;;;;;;;;;;4939442;29;20051;-84
2022/03/02 08:09:08;;;;;;;41.60;29.85;;;;;;;;;;4940959;29;20050;-85
2022/03/02 08:11:37;;;;;;;43.13;29.88;;;;;;;;;;4929733;29;20540;-84
2022/03/02 08:14:03;;;;;;;40.53;29.40;;;;;;;;;;4947179;29;20058;-85
2022/03/02 08:16:30;;;;;;;43.58;29.58;;;;;;;;;;4942191;29;20076;-85
2022/03/02 08:18:57;;;;;;;40.80;29.73;;;;;;;;;;4946160;29;20035;-85
2022/03/02 08:21:23;;;;;;;41.42;30.15;;;;;;;;;;4928549;29;20039;-85
2022/03/02 08:23:50;;;;;;;38.92;28.25;;;;;;;;;;4934788;29;20039;-85
2022/03/02 08:26:20;;;;;;;40.85;29.35;;;;;;;;;;4935887;29;20035;-83
2022/03/02 08:28:47;;;;;;;37.42;28.65;;;;;;;;;;4942648;29;20481;-83
2022/03/02 08:31:14;;;;;;;39.05;28.50;;;;;;;;;;4942320;28;20393;-84
2022/03/02 08:33:41;;;;;;;42.50;30.13;;;;;;;;;;4937855;29;20046;-84
2022/03/02 08:36:09;;;;;;;41.30;30.10;;;;;;;;;;4948280;29;20074;-84
2022/03/02 08:38:40;;;;;;;37.25;27.33;;;;;;;;;;4948250;29;20040;-83
2022/03/02 08:41:07;;;;;;;41.87;29.67;;;;;;;;;;4949596;29;20139;-84
2022/03/02 08:43:35;;;;;;;37.13;29.02;;;;;;;;;;4933007;29;20039;-84
2022/03/02 08:46:01;;;;;;;39.28;29.83;;;;;;;;;;4942603;29;20048;-84
2022/03/02 08:48:27;;;;;;;38.83;28.75;;;;;;;;;;4940003;29;20550;-83
2022/03/02 08:50:56;;;;;;;36.63;27.23;;;;;;;;;;4942365;29;20047;-84
2022/03/02 08:53:23;;;;;;;39.55;29.20;;;;;;;;;;4930516;29;20048;-85
2022/03/02 08:55:49;;;;;;;36.17;27.23;;;;;;;;;;4944395;29;20039;-84
2022/03/02 08:58:16;;;;;;;35.53;28.33;;;;;;;;;;4934605;29;20042;-84
2022/03/02 09:00:42;;;;;;;40.47;29.13;;;;;;;;;;4939437;29;20043;-83
2022/03/02 09:03:08;;;;;;;38.45;27.65;;;;;;;;;;4938933;29;20047;-83
2022/03/02 09:05:34;;;;;;;33.88;25.58;;;;;;;;;;4945515;29;20102;-84
2022/03/02 09:08:01;;;;;;;36.03;26.58;;;;;;;;;;4948895;29;20047;-84
2022/03/02 09:10:29;;;;;;;35.88;24.83;;;;;;;;;;4944139;28;20040;-84
2022/03/02 09:12:56;;;;;;;33.40;25.27;;;;;;;;;;4946458;28;20702;-84
2022/03/02 09:15:22;;;;;;;36.30;26.90;;;;;;;;;;4948466;29;20046;-84
2022/03/02 09:17:49;;;;;;;37.97;26.00;;;;;;;;;;4940365;29;20047;-84
2022/03/02 09:20:15;;;;;;;31.65;24.40;;;;;;;;;;4940866;23;20075;-84
2022/03/02 09:22:41;;;;;;;41.63;24.65;;;;;;;;;;4955137;28;20125;-85
2022/03/02 09:25:07;;;;;;;37.30;25.50;;;;;;;;;;4954152;28;20046;-85
2022/03/02 09:27:34;;;;;;;36.97;26.42;;;;;;;;;;4957067;28;20035;-84
2022/03/02 09:30:02;;;;;;;36.20;27.27;;;;;;;;;;4953377;28;20090;-84
2022/03/02 09:32:30;;;;;;;34.20;25.98;;;;;;;;;;4959752;28;20050;-84
2022/03/02 09:34:57;;;;;;;33.97;26.58;;;;;;;;;;4939942;28;20053;-84
2022/03/02 09:37:24;;;;;;;34.35;25.15;;;;;;;;;;4959679;28;20047;-83
2022/03/02 09:39:51;;;;;;;34.72;25.48;;;;;;;;;;4938321;28;20039;-83
2022/03/02 09:42:30;;;;;;;32.72;24.35;;;;;;;;;;4964932;28;20463;-82
2022/03/02 09:45:16;;;;;;;32.60;24.08;;;;;;;;;;4972426;28;20121;-84
2022/03/02 09:47:43;;;;;;;32.90;23.45;;;;;;;;;;4968552;28;20130;-84
2022/03/02 09:50:12;;;;;;;31.25;23.30;;;;;;;;;;4946440;28;20070;-84
2022/03/02 09:52:39;;;;;;;29.25;22.75;;;;;;;;;;4958911;28;20047;-84
2022/03/02 09:55:08;;;;;;;33.05;24.20;;;;;;;;;;4967999;28;20046;-85
2022/03/02 09:57:34;;;;;;;32.92;24.40;;;;;;;;;;4961939;28;20117;-84
2022/03/02 10:00:01;;;;;;;32.08;22.83;;;;;;;;;;4958587;28;20047;-85
2022/03/02 10:02:38;;;;;;;30.17;22.85;;;;;;;;;;4943691;28;20042;-84
2022/03/02 10:05:06;;;;;;;31.88;22.42;;;;;;;;;;4958504;28;20046;-84
2022/03/02 10:07:34;;;;;;;31.70;23.92;;;;;;;;;;4940329;28;20477;-84
2022/03/02 10:10:06;;;;;;;28.70;22.25;;;;;;;;;;4959702;28;20069;-85
2022/03/02 10:12:32;;;;;;;31.83;22.33;;;;;;;;;;4951707;28;20050;-85
2022/03/02 10:14:58;;;;;;;29.55;22.17;;;;;;;;;;4962176;28;20047;-85
2022/03/02 10:17:28;;;;;;;27.67;21.38;;;;;;;;;;4958768;28;20512;-83
2022/03/02 10:19:56;;;;;;;29.83;21.38;;;;;;;;;;4955901;28;20058;-84
2022/03/02 10:22:37;;;;;;;29.02;21.83;;;;;;;;;;4963814;28;20077;-84
2022/03/02 10:25:06;;;;;;;28.50;21.90;;;;;;;;;;4956925;28;20035;-84
2022/03/02 10:27:50;;;;;;;30.08;22.33;;;;;;;;;;4957137;28;20049;-84
2022/03/02 10:30:16;;;;;;;30.30;23.17;;;;;;;;;;4965412;28;20184;-85
2022/03/02 10:32:43;;;;;;;30.05;23.05;;;;;;;;;;4958945;28;20050;-85
2022/03/02 10:35:10;;;;;;;28.23;22.95;;;;;;;;;;4957599;28;20042;-84
2022/03/02 10:37:38;;;;;;;28.95;22.17;;;;;;;;;;4957903;28;20062;-84
2022/03/02 10:40:17;;;;;;;29.85;21.75;;;;;;;;;;4959916;28;20046;-84
2022/03/02 10:42:44;;;;;;;28.10;21.83;;;;;;;;;;4955433;28;20054;-84
2022/03/02 10:45:16;;;;;;;29.05;21.75;;;;;;;;;;4958317;28;20559;-85
2022/03/02 10:48:01;;;;;;;25.67;20.80;;;;;;;;;;4937101;29;20042;-85
2022/03/02 10:50:32;;;;;;;29.33;22.83;;;;;;;;;;4938696;28;20078;-84
2022/03/02 10:52:58;;;;;;;30.45;22.35;;;;;;;;;;4951295;28;20760;-84
2022/03/02 10:55:25;;;;;;;29.75;23.00;;;;;;;;;;4954055;28;20125;-84
2022/03/02 10:57:52;;;;;;;29.15;22.33;;;;;;;;;;4957619;28;20066;-84
2022/03/02 11:00:19;;;;;;;29.85;22.05;;;;;;;;;;4957245;28;20133;-84
2022/03/02 11:02:47;;;;;;;27.58;21.45;;;;;;;;;;4938761;28;20092;-84
2022/03/02 11:05:15;;;;;;;28.55;23.27;;;;;;;;;;4946137;28;20381;-83
2022/03/02 11:07:42;;;;;;;28.65;22.67;;;;;;;;;;4937492;28;20039;-83
2022/03/02 11:10:09;;;;;;;29.02;22.05;;;;;;;;;;4954671;28;20503;-85
2022/03/02 11:12:37;;;;;;;27.85;21.27;;;;;;;;;;4954937;28;20078;-84
2022/03/02 11:15:05;;;;;;;25.17;21.60;;;;;;;;;;4960707;28;20074;-84
2022/03/02 11:17:32;;;;;;;28.92;21.38;;;;;;;;;;4955323;28;20054;-84
2022/03/02 11:19:58;;;;;;;26.88;20.95;;;;;;;;;;4963595;28;20053;-83
2022/03/02 11:22:27;;;;;;;30.35;22.05;;;;;;;;;;4940432;28;20349;-84
2022/03/02 11:24:57;;;;;;;28.00;22.50;;;;;;;;;;4951835;28;20073;-83
2022/03/02 11:27:40;;;;;;;27.25;20.88;;;;;;;;;;4954404;28;20051;-84
2022/03/02 11:30:09;;;;;;;26.83;21.40;;;;;;;;;;4952236;28;20049;-84
2022/03/02 11:32:37;;;;;;;26.02;21.38;;;;;;;;;;4953580;28;20035;-84
2022/03/02 11:35:04;;;;;;;26.67;20.63;;;;;;;;;;4959296;28;20101;-84
2022/03/02 11:37:33;;;;;;;27.67;20.63;;;;;;;;;;4955517;28;20046;-85
2022/03/02 11:40:00;;;;;;;28.35;21.88;;;;;;;;;;4961126;28;20053;-84
2022/03/02 11:42:30;;;;;;;26.98;21.20;;;;;;;;;;4949218;28;20038;-84
2022/03/02 11:44:57;;;;;;;27.15;20.98;;;;;;;;;;4955540;28;20051;-84
2022/03/02 11:47:24;;;;;;;25.20;20.17;;;;;;;;;;4951357;28;20035;-84
2022/03/02 11:49:55;;;;;;;26.23;21.23;;;;;;;;;;4972490;28;20121;-85
2022/03/02 11:52:25;;;;;;;27.80;21.05;;;;;;;;;;4957353;28;20054;-84
2022/03/02 11:54:59;;;;;;;27.98;21.48;;;;;;;;;;4966675;28;20121;-85
2022/03/02 11:57:26;;;;;;;26.23;20.83;;;;;;;;;;4964116;28;20077;-84
2022/03/02 12:00:11;;;;;;;27.33;21.08;;;;;;;;;;4961959;28;20082;-84
2022/03/02 12:02:42;;;;;;;24.00;19.17;;;;;;;;;;4967922;28;20126;-84
2022/03/02 12:05:08;;;;;;;27.02;19.95;;;;;;;;;;4956778;28;20035;-84
2022/03/02 12:07:38;;;;;;;24.50;19.85;;;;;;;;;;4962095;28;20043;-84
2022/03/02 12:10:05;;;;;;;26.13;20.00;;;;;;;;;;4949950;28;20051;-84
2022/03/02 12:12:31;;;;;;;25.15;18.98;;;;;;;;;;4940015;28;20085;-84
2022/03/02 12:15:01;;;;;;;23.25;18.70;;;;;;;;;;4954532;28;20047;-83
2022/03/02 12:17:33;;;;;;;26.15;20.15;;;;;;;;;;4933968;28;20074;-83
2022/03/02 12:19:59;;;;;;;;;;;;;;;;;;4960625;28;20049;-83
2022/03/02 12:22:32;;;;;;;23.95;19.02;;;;;;;;;;4965233;28;20352;-83
2022/03/02 12:25:01;;;;;;;24.00;19.05;;;;;;;;;;4964239;28;20043;-83
2022/03/02 12:27:27;;;;;;;23.95;18.92;;;;;;;;;;4962409;28;20043;-83
2022/03/02 12:30:04;;;;;;;23.30;18.05;;;;;;;;;;4947023;28;20042;-83
2022/03/02 12:32:31;;;;;;;23.85;18.42;;;;;;;;;;4949984;28;20077;-83
2022/03/02 12:34:57;;;;;;;25.25;19.25;;;;;;;;;;4936129;28;20045;-83
2022/03/02 12:37:24;;;;;;;25.70;18.75;;;;;;;;;;4933188;28;20039;-83
2022/03/02 12:39:51;;;;;;;25.73;18.85;;;;;;;;;;4956382;28;20042;-83
2022/03/02 12:42:17;;;;;;;25.45;19.40;;;;;;;;;;4948362;28;20055;-83
2022/03/02 12:44:45;;;;;;;24.67;19.70;;;;;;;;;;4961230;28;20034;-83
2022/03/02 12:47:13;;;;;;;25.15;18.83;;;;;;;;;;4951415;28;20043;-83
2022/03/02 12:49:40;;;;;;;24.27;18.67;;;;;;;;;;4944457;28;20042;-83
2022/03/02 12:52:07;;;;;;;21.50;17.13;;;;;;;;;;4962563;28;20067;-83
2022/03/02 12:54:38;;;;;;;25.90;19.45;;;;;;;;;;4950247;28;20074;-83
2022/03/02 12:57:05;;;;;;;24.33;19.20;;;;;;;;;;4972187;28;20054;-83
2022/03/02 12:59:32;;;;;;;23.35;18.30;;;;;;;;;;4955074;28;20124;-83
2022/03/02 13:01:59;;;;;;;24.45;18.50;;;;;;;;;;4957931;28;20073;-83
2022/03/02 13:04:28;;;;;;;23.50;18.73;;;;;;;;;;4952518;28;20061;-83
2022/03/02 13:06:56;;;;;;;24.00;19.17;;;;;;;;;;4963202;28;20484;-83
2022/03/02 13:09:24;;;;;;;23.35;18.52;;;;;;;;;;4970681;28;20038;-83
2022/03/02 13:11:50;;;;;;;23.73;18.77;;;;;;;;;;4964457;28;20047;-83
2022/03/02 13:14:33;;;;;;;22.88;18.55;;;;;;;;;;4959910;28;20046;-83
2022/03/02 13:17:15;;;;;;;23.40;19.27;;;;;;;;;;4958700;28;20057;-83
2022/03/02 13:19:48;;;;;;;24.05;18.80;;;;;;;;;;4963452;28;20096;-83
2022/03/02 13:22:24;;;;;;;24.25;19.48;;;;;;;;;;4961742;28;20468;-83
2022/03/02 13:24:52;;;;;;;23.00;18.35;;;;;;;;;;4952563;28;20123;-83
2022/03/02 13:27:18;;;;;;;22.17;17.42;;;;;;;;;;4949185;28;20500;-83
2022/03/02 13:29:58;;;;;;;23.30;17.98;;;;;;;;;;4931153;28;20035;-83
2022/03/02 13:32:46;;;;;;;22.05;17.75;;;;;;;;;;4948091;28;20149;-83
2022/03/02 13:35:13;;;;;;;24.02;19.08;;;;;;;;;;4955909;28;20058;-83
2022/03/02 13:37:53;;;;;;;21.92;17.90;;;;;;;;;;4948611;28;20389;-83
2022/03/02 13:40:35;;;;;;;25.48;18.80;;;;;;;;;;4961581;28;20046;-83
2022/03/02 13:43:07;;;;;;;22.70;16.83;;;;;;;;;;4957966;28;20043;-83
2022/03/02 13:45:34;;;;;;;21.38;17.27;;;;;;;;;;4949051;28;20038;-83
2022/03/02 13:48:18;;;;;;;23.17;18.45;;;;;;;;;;4938282;28;20054;-83
2022/03/02 13:51:14;;;;;;;23.48;18.50;;;;;;;;;;4957937;28;20061;-82
2022/03/02 13:53:41;;;;;;;23.27;18.15;;;;;;;;;;4938460;28;20385;-83
2022/03/02 13:56:18;;;;;;;22.33;18.48;;;;;;;;;;4934871;28;20051;-82
2022/03/02 13:58:49;;;;;;;25.00;19.70;;;;;;;;;;4957124;28;20054;-82
2022/03/02 14:01:27;;;;;;;23.50;18.02;;;;;;;;;;4956026;28;20039;-82
2022/03/02 14:04:02;;;;;;;23.48;18.08;;;;;;;;;;4960222;28;20392;-83
2022/03/02 14:06:29;;;;;;;25.52;18.58;;;;;;;;;;4959756;28;20078;-82
2022/03/02 14:08:55;;;;;;;23.80;17.85;;;;;;;;;;4957414;28;20035;-82
2022/03/02 14:11:34;;;;;;;21.33;16.98;;;;;;;;;;4957964;28;20049;-83
2022/03/02 14:14:00;;;;;;;23.15;17.13;;;;;;;;;;4973081;28;20742;-83
2022/03/02 14:16:26;;;;;;;21.42;16.55;;;;;;;;;;4978853;28;20428;-82
2022/03/02 14:19:07;;;;;;;19.90;15.98;;;;;;;;;;4942479;28;20129;-82
2022/03/02 14:21:33;;;;;;;21.75;16.63;;;;;;;;;;4949932;28;20547;-82